Time;durP1;ratioP1;P1;durP2;ratioP2;P2;SDS_P1;SDS_P2;PMS_P1;PMS_P2;Temp;Humidity;BMP_temperature;BMP_pressure;BME280_temperature;BME280_humidity;BME280_pressure;Samples;Min_cycle;Max_cycle;Signal;HPM_P1;HPM_P2
2022/05/23 01:53:41;;;;;;;3.55;2.15;;;17.40;50.20;;;;;;4983680;28;20223;-88
2022/05/23 04:39:51;;;;;;;3.25;2.95;;;17.30;53.40;;;;;;5062120;28;20212;-88
2022/05/23 04:52:48;;;;;;;7.13;3.90;;;17.60;53.70;;;;;;4979445;28;20592;-87
2022/05/23 04:56:06;;;;;;;;;;;;;;;;;;;;;
2022/05/23 05:12:50;;;;;;;4.40;2.53;;;17.60;55.40;;;;;;4979249;28;20198;-88
2022/05/23 05:15:18;;;;;;;6.07;2.60;;;17.70;55.70;;;;;;4943993;28;20618;-87
2022/05/23 05:21:21;;;;;;;7.90;2.90;;;17.70;56.80;;;;;;4985700;28;20245;-87
2022/05/23 05:58:03;;;;;;;5.50;2.83;;;19.10;55.00;;;;;;4950589;29;20201;-86
2022/05/23 06:00:31;;;;;;;15.73;13.63;;;19.20;51.50;;;;;;4947830;29;20210;-85
2022/05/23 06:16:08;;;;;;;4.40;2.78;;;19.60;49.10;;;;;;5058415;28;20205;-85
2022/05/23 06:25:20;;;;;;;8.45;4.38;;;19.30;51.30;;;;;;5070288;28;20189;-86
2022/05/23 06:28:13;;;;;;;6.55;3.00;;;19.30;51.60;;;;;;5070206;28;20214;-86
2022/05/23 06:30:50;;;;;;;7.13;2.60;;;19.50;54.20;;;;;;5066840;28;20210;-86
2022/05/23 06:33:21;;;;;;;4.65;2.97;;;19.50;52.20;;;;;;5067241;28;20247;-87
2022/05/23 06:36:14;;;;;;;5.68;2.65;;;19.50;50.70;;;;;;5069573;28;20209;-86
2022/05/23 06:39:10;;;;;;;4.78;2.63;;;19.50;51.30;;;;;;5039247;28;20202;-86
2022/05/23 06:41:37;;;;;;;6.35;2.60;;;19.70;50.80;;;;;;5058699;28;20233;-88
2022/05/23 06:44:05;;;;;;;4.70;2.53;;;19.80;49.50;;;;;;5069738;28;20213;-86
2022/05/23 06:46:38;;;;;;;6.70;3.00;;;20.00;49.20;;;;;;5052068;28;20332;-86
2022/05/23 06:49:08;;;;;;;3.95;2.70;;;20.40;48.70;;;;;;5070877;28;20233;-86
2022/05/23 06:51:39;;;;;;;3.78;2.72;;;20.60;50.40;;;;;;5063593;28;20213;-86
2022/05/23 07:21:08;;;;;;;6.10;3.15;;;19.80;52.50;;;;;;4991950;28;20203;-87
2022/05/23 07:23:47;;;;;;;8.52;3.33;;;19.70;54.00;;;;;;5007992;28;20203;-87
2022/05/23 07:29:35;;;;;;;5.03;3.28;;;19.80;51.60;;;;;;4932973;29;20210;-86
2022/05/23 07:32:06;;;;;;;9.90;2.90;;;19.90;51.90;;;;;;4948731;29;20214;-85
2022/05/23 07:34:40;;;;;;;8.02;2.83;;;20.10;49.40;;;;;;4944828;29;20231;-86
2022/05/23 07:40:47;;;;;;;6.68;2.55;;;20.20;47.80;;;;;;4926566;29;20210;-87
2022/05/23 08:57:50;;;;;;;7.28;4.43;;;19.90;55.80;;;;;;4854492;29;20230;-86
2022/05/23 09:03:46;;;;;;;7.15;3.95;;;20.00;55.70;;;;;;4940147;29;20218;-86
2022/05/23 09:06:18;;;;;;;7.00;3.70;;;20.70;53.50;;;;;;5006296;28;20289;-86
2022/05/23 09:08:58;;;;;;;7.22;3.53;;;22.60;40.00;;;;;;4995174;28;20559;-82
2022/05/23 09:11:39;;;;;;;6.32;3.50;;;24.60;32.20;;;;;;4988248;28;20286;-81
2022/05/23 09:14:11;;;;;;;6.32;3.65;;;26.10;25.10;;;;;;4990753;28;20227;-81
2022/05/23 09:16:50;;;;;;;7.22;3.60;;;27.80;22.00;;;;;;4979909;28;20237;-81
2022/05/23 09:19:38;;;;;;;6.38;3.35;;;28.50;18.50;;;;;;5048915;28;20205;-80
2022/05/23 09:22:13;;;;;;;4.80;3.15;;;29.00;16.80;;;;;;5041534;28;20660;-80
2022/05/23 09:24:43;;;;;;;5.47;2.65;;;27.60;18.40;;;;;;5055058;28;20217;-80
2022/05/23 09:27:20;;;;;;;8.70;3.40;;;27.30;21.60;;;;;;5055664;28;20206;-81
2022/05/23 09:29:54;;;;;;;6.63;3.08;;;26.50;20.80;;;;;;5041644;28;20200;-81
2022/05/23 09:32:36;;;;;;;4.97;2.78;;;27.10;19.80;;;;;;5054191;28;20219;-81
2022/05/23 09:35:15;;;;;;;7.95;3.00;;;28.30;19.10;;;;;;5054443;28;20221;-82
2022/05/23 09:37:46;;;;;;;3.90;2.42;;;26.90;19.80;;;;;;5055421;28;20212;-82
2022/05/23 09:40:27;;;;;;;5.95;2.90;;;26.90;19.80;;;;;;5055931;28;20251;-81
2022/05/23 09:49:09;;;;;;;5.57;2.50;;;27.80;19.60;;;;;;5051712;28;20204;-81
2022/05/23 09:51:54;;;;;;;7.45;3.17;;;28.80;16.00;;;;;;5061060;28;20549;-82
2022/05/23 09:54:30;;;;;;;6.22;3.63;;;28.70;16.00;;;;;;5057464;28;20256;-81
2022/05/23 09:57:19;;;;;;;8.20;3.50;;;29.80;15.90;;;;;;5044090;28;20316;-81
2022/05/23 09:59:56;;;;;;;7.20;2.97;;;30.00;14.80;;;;;;5054383;28;20289;-81
2022/05/23 10:02:38;;;;;;;6.60;3.08;;;30.30;13.80;;;;;;5048820;28;20211;-84
2022/05/23 10:05:07;;;;;;;6.20;3.08;;;30.70;14.10;;;;;;5048762;28;20208;-84
2022/05/23 10:07:38;;;;;;;6.78;3.22;;;31.20;13.20;;;;;;5044948;28;20202;-82
2022/05/23 10:10:49;;;;;;;6.55;3.60;;;31.10;13.10;;;;;;5049879;28;20198;-81
2022/05/23 10:13:28;;;;;;;7.88;3.45;;;31.00;13.10;;;;;;5048614;28;20331;-82
2022/05/23 10:15:58;;;;;;;5.68;3.17;;;29.10;13.90;;;;;;5059684;28;20202;-82
2022/05/23 10:18:30;;;;;;;10.10;3.13;;;29.10;16.20;;;;;;5052857;28;20278;-81
2022/05/23 10:21:18;;;;;;;7.35;3.17;;;28.70;16.00;;;;;;5052973;28;20194;-81
2022/05/23 10:24:00;;;;;;;7.00;3.10;;;28.10;15.80;;;;;;5053412;28;20201;-80
2022/05/23 10:26:50;;;;;;;4.53;2.92;;;28.60;16.00;;;;;;5040757;28;20227;-82
2022/05/23 10:29:42;;;;;;;7.15;3.67;;;29.10;16.20;;;;;;5049069;28;20201;-81
2022/05/23 10:32:49;;;;;;;5.22;3.03;;;29.20;16.20;;;;;;5040435;28;20205;-81
2022/05/23 10:35:24;;;;;;;6.60;2.85;;;29.10;17.00;;;;;;5044224;28;20235;-80
2022/05/23 10:44:22;;;;;;;5.68;3.50;;;27.40;19.40;;;;;;5054021;28;20277;-80
2022/05/23 10:46:57;;;;;;;5.13;3.50;;;27.90;19.40;;;;;;5052414;28;20201;-81
2022/05/23 10:49:39;;;;;;;10.10;3.70;;;28.30;18.50;;;;;;5047064;28;20201;-82
2022/05/23 10:52:30;;;;;;;7.22;3.70;;;28.60;18.80;;;;;;5053788;28;20869;-81
2022/05/23 10:55:24;;;;;;;5.18;3.45;;;28.40;16.60;;;;;;5044319;28;20649;-81
2022/05/23 10:58:02;;;;;;;6.18;3.20;;;28.60;16.30;;;;;;5043235;28;20305;-81
2022/05/23 11:00:36;;;;;;;6.20;3.50;;;29.00;17.90;;;;;;5051772;28;20338;-82
2022/05/23 11:03:28;;;;;;;8.02;3.42;;;29.30;18.70;;;;;;5054047;28;20197;-81
2022/05/23 11:06:02;;;;;;;5.93;3.53;;;28.40;18.70;;;;;;5051265;28;20204;-81
2022/05/23 11:08:59;;;;;;;6.18;3.25;;;28.00;18.80;;;;;;5049148;28;20197;-79
2022/05/23 11:11:38;;;;;;;8.43;3.35;;;27.70;19.90;;;;;;5050419;28;20670;-81
2022/05/23 11:14:14;;;;;;;6.93;3.30;;;27.30;21.60;;;;;;5042978;28;20648;-82
2022/05/23 11:16:58;;;;;;;6.75;3.53;;;27.10;21.30;;;;;;5041001;28;20197;-82
2022/05/23 11:19:32;;;;;;;11.80;3.65;;;26.80;20.50;;;;;;5045827;28;20558;-83
2022/05/23 11:22:06;;;;;;;5.65;3.80;;;26.40;20.90;;;;;;5032216;28;20201;-83
2022/05/23 11:24:45;;;;;;;10.27;3.88;;;26.30;22.20;;;;;;5042418;28;20650;-83
2022/05/23 11:34:04;;;;;;;5.70;3.45;;;26.50;25.50;;;;;;5038579;28;20684;-82
2022/05/23 11:36:56;;;;;;;6.60;3.38;;;27.00;22.90;;;;;;5040535;28;20673;-85
2022/05/23 11:39:49;;;;;;;10.13;3.45;;;26.60;25.10;;;;;;5042047;28;21199;-82
2022/05/23 11:42:26;;;;;;;9.98;3.90;;;26.80;24.10;;;;;;5035179;28;20257;-85
2022/05/23 11:48:54;;;;;;;10.57;3.35;;;26.50;25.30;;;;;;5041553;28;20228;-84
2022/05/23 11:51:38;;;;;;;6.13;2.78;;;26.40;23.00;;;;;;5038023;28;20217;-84
2022/05/23 11:54:35;;;;;;;8.63;3.20;;;26.50;22.30;;;;;;5042654;28;20233;-83
2022/05/23 11:57:35;;;;;;;8.13;3.42;;;26.40;23.20;;;;;;5046858;28;20198;-83
2022/05/23 12:00:31;;;;;;;4.72;3.15;;;26.60;22.20;;;;;;5048557;28;20209;-83
2022/05/23 12:03:11;;;;;;;7.47;3.13;;;26.80;22.40;;;;;;5049582;28;20211;-84
2022/05/23 12:05:38;;;;;;;6.07;3.10;;;26.60;21.70;;;;;;5046782;28;20198;-84
2022/05/23 12:08:33;;;;;;;9.38;3.38;;;26.70;22.30;;;;;;5049918;28;20212;-83
2022/05/23 12:11:22;;;;;;;9.55;3.88;;;26.00;21.90;;;;;;5054795;28;20221;-85
2022/05/23 12:13:52;;;;;;;9.15;3.58;;;25.60;23.90;;;;;;5050319;28;20229;-85
2022/05/23 12:17:05;;;;;;;6.40;2.97;;;26.00;23.30;;;;;;5052994;28;20227;-87
2022/05/23 12:19:53;;;;;;;6.72;3.25;;;26.10;23.40;;;;;;5050928;28;20210;-82
2022/05/23 12:22:41;;;;;;;5.25;2.95;;;26.20;25.20;;;;;;5043875;28;20206;-82
2022/05/23 12:25:27;;;;;;;12.07;3.35;;;26.30;22.20;;;;;;5054348;28;20280;-82
2022/05/23 12:28:09;;;;;;;6.43;2.90;;;26.30;23.90;;;;;;5045169;28;20214;-82
2022/05/23 12:30:42;;;;;;;6.28;3.13;;;26.60;22.00;;;;;;5050669;28;20211;-83
2022/05/23 12:33:22;;;;;;;5.38;2.78;;;26.60;23.30;;;;;;5058130;28;20214;-84
2022/05/23 12:35:59;;;;;;;8.43;3.30;;;26.60;23.20;;;;;;5053207;28;20225;-81
2022/05/23 12:38:36;;;;;;;10.70;3.33;;;26.60;22.10;;;;;;5058039;28;20276;-81
2022/05/23 12:41:19;;;;;;;7.88;3.50;;;26.70;21.60;;;;;;5048705;28;20210;-82
2022/05/23 12:44:12;;;;;;;10.68;3.20;;;26.90;22.40;;;;;;5065492;28;20694;-82
2022/05/23 12:46:55;;;;;;;6.63;3.25;;;26.90;20.70;;;;;;5038423;28;20205;-81
2022/05/23 12:49:39;;;;;;;8.40;3.13;;;27.00;20.70;;;;;;5056456;28;20213;-82
2022/05/23 12:52:22;;;;;;;11.15;3.13;;;27.10;21.60;;;;;;5064143;28;20237;-79
2022/05/23 12:55:18;;;;;;;6.20;3.50;;;27.30;20.50;;;;;;5055501;28;20225;-79
2022/05/23 12:58:13;;;;;;;8.60;3.47;;;27.30;20.00;;;;;;5063212;28;20212;-79
2022/05/23 13:00:45;;;;;;;8.13;3.97;;;27.50;19.50;;;;;;5058386;28;20743;-79
2022/05/23 13:03:28;;;;;;;6.35;3.42;;;27.90;19.60;;;;;;5057107;28;20244;-79
2022/05/23 13:06:00;;;;;;;9.60;3.08;;;28.10;18.80;;;;;;5058482;28;20202;-80
2022/05/23 13:08:34;;;;;;;6.15;3.33;;;28.40;18.60;;;;;;5055688;28;20198;-79
2022/05/23 13:11:04;;;;;;;9.70;3.58;;;28.40;18.40;;;;;;5050988;28;20197;-79
2022/05/23 13:13:36;;;;;;;7.65;3.35;;;28.00;18.30;;;;;;5045727;28;20285;-79
2022/05/23 13:16:25;;;;;;;9.02;3.40;;;27.40;19.90;;;;;;5051055;28;20240;-79
2022/05/23 13:27:19;;;;;;;5.40;2.90;;;25.70;23.60;;;;;;5061511;28;20232;-81
2022/05/23 13:30:06;;;;;;;9.90;3.55;;;25.60;24.80;;;;;;5043547;28;20197;-82
2022/05/23 13:32:34;;;;;;;11.52;3.55;;;25.50;23.20;;;;;;5047629;28;20267;-81
2022/05/23 13:35:22;;;;;;;6.57;2.88;;;25.40;24.10;;;;;;5056993;28;20591;-82
2022/05/23 13:37:49;;;;;;;10.35;3.67;;;25.30;24.30;;;;;;5052234;28;20288;-81
2022/05/23 13:40:29;;;;;;;8.48;3.00;;;25.30;24.80;;;;;;5056109;28;20212;-81
2022/05/23 13:43:18;;;;;;;8.20;3.28;;;25.40;24.20;;;;;;5047689;28;20206;-83
2022/05/23 13:45:47;;;;;;;6.35;3.25;;;25.90;23.50;;;;;;5042864;28;20210;-82
2022/05/23 13:48:17;;;;;;;8.30;3.22;;;26.20;22.70;;;;;;5055701;28;20221;-81
2022/05/23 13:50:50;;;;;;;8.60;3.20;;;26.50;22.50;;;;;;5050984;28;20202;-82
2022/05/23 13:53:30;;;;;;;7.93;3.20;;;26.90;22.00;;;;;;5051819;28;20212;-82
2022/05/23 13:56:05;;;;;;;6.30;3.20;;;26.80;20.60;;;;;;5048248;28;20286;-83
2022/05/23 13:58:35;;;;;;;10.43;3.30;;;26.60;20.90;;;;;;5054269;28;20212;-82
2022/05/23 14:01:06;;;;;;;5.85;3.03;;;26.30;23.10;;;;;;5046957;28;20201;-83
2022/05/23 14:03:43;;;;;;;9.23;3.30;;;26.10;23.40;;;;;;5049449;28;20201;-83
2022/05/23 14:06:33;;;;;;;11.02;3.50;;;25.70;23.90;;;;;;5035710;28;20217;-82
2022/05/23 14:09:32;;;;;;;10.85;3.75;;;25.50;23.30;;;;;;5049758;28;20257;-82
2022/05/23 14:12:11;;;;;;;6.97;2.90;;;25.40;24.10;;;;;;5046123;28;20199;-82
2022/05/23 14:14:41;;;;;;;10.60;2.95;;;25.40;24.60;;;;;;5053673;28;20308;-84
2022/05/23 14:17:17;;;;;;;7.40;3.22;;;25.30;25.00;;;;;;5045521;28;20229;-83
2022/05/23 14:19:48;;;;;;;8.45;3.22;;;25.20;26.10;;;;;;5057748;28;20649;-83
2022/05/23 14:22:25;;;;;;;10.15;3.38;;;25.20;25.60;;;;;;5048137;28;20210;-86
2022/05/23 14:25:26;;;;;;;8.02;3.42;;;25.10;26.70;;;;;;5044981;28;20857;-86
2022/05/23 14:28:16;;;;;;;5.95;3.08;;;24.90;27.80;;;;;;5043980;28;20197;-85
2022/05/23 14:34:31;;;;;;;16.98;4.15;;;24.50;27.40;;;;;;5044233;28;21883;-85
2022/05/23 14:37:10;;;;;;;6.57;3.00;;;24.20;28.20;;;;;;5044880;28;20202;-85
2022/05/23 14:39:39;;;;;;;10.25;3.33;;;24.10;28.70;;;;;;5048114;28;20198;-85
2022/05/23 14:42:39;;;;;;;6.15;2.92;;;24.00;29.50;;;;;;5049786;28;20933;-85
2022/05/23 14:52:33;;;;;;;11.85;3.42;;;23.30;34.80;;;;;;4949251;28;20192;-87
2022/05/23 14:55:20;;;;;;;13.80;3.30;;;22.40;43.80;;;;;;4952090;28;20243;-86
2022/05/23 15:04:35;;;;;;;9.45;3.15;;;20.90;56.70;;;;;;5049051;28;20225;-87
2022/05/23 15:07:55;;;;;;;9.88;3.42;;;20.60;61.50;;;;;;5054807;28;20213;-87
2022/05/23 15:14:23;;;;;;;7.65;3.45;;;20.60;68.70;;;;;;5064168;28;20213;-87
2022/05/23 15:21:06;;;;;;;9.15;3.83;;;20.60;77.50;;;;;;5058528;28;20185;-86
2022/05/23 15:34:42;;;;;;;9.98;4.10;;;20.30;91.20;;;;;;5043143;28;20265;-87
2022/05/23 16:25:36;;;;;;;9.15;4.40;;;20.70;80.00;;;;;;4957976;28;20199;-86
2022/05/23 16:28:10;;;;;;;8.70;4.00;;;21.10;78.70;;;;;;4962466;28;20209;-86
2022/05/23 16:30:56;;;;;;;10.00;4.45;;;21.40;77.00;;;;;;5025468;28;20201;-86
2022/05/23 16:36:53;;;;;;;13.88;6.95;;;21.40;75.60;;;;;;5043135;28;20232;-86
2022/05/23 16:39:32;;;;;;;13.35;4.82;;;21.60;75.60;;;;;;5049675;28;20274;-86
2022/05/23 16:42:08;;;;;;;13.95;11.60;;;21.60;75.80;;;;;;5050142;28;20231;-86
2022/05/23 16:44:37;;;;;;;11.70;4.97;;;21.80;77.00;;;;;;5060652;28;20206;-86
2022/05/23 16:47:14;;;;;;;9.48;4.30;;;22.00;75.00;;;;;;5052820;28;20216;-86
2022/05/23 16:49:44;;;;;;;11.13;6.55;;;21.90;72.80;;;;;;5032526;28;20205;-86
2022/05/23 16:52:31;;;;;;;6.15;3.90;;;21.70;73.00;;;;;;5054526;28;20275;-86
2022/05/23 16:55:19;;;;;;;13.48;4.50;;;21.80;75.90;;;;;;5034942;28;20308;-86
2022/05/23 16:57:46;;;;;;;9.93;4.40;;;21.70;73.40;;;;;;5058879;28;20208;-86
2022/05/23 17:00:22;;;;;;;11.80;4.75;;;21.70;73.80;;;;;;5062570;28;20204;-86
2022/05/23 17:02:56;;;;;;;10.68;4.45;;;21.70;75.50;;;;;;5050906;28;20205;-86
2022/05/23 17:05:32;;;;;;;6.40;4.55;;;21.70;74.30;;;;;;5052546;28;20574;-86
2022/05/23 17:08:02;;;;;;;10.55;6.53;;;21.60;76.00;;;;;;5058455;28;20208;-87
2022/05/23 17:10:29;;;;;;;7.53;4.43;;;21.60;74.70;;;;;;5053536;28;20209;-86
2022/05/23 17:12:56;;;;;;;6.53;4.22;;;21.50;73.80;;;;;;5061132;28;20679;-86
2022/05/23 17:15:34;;;;;;;9.15;4.55;;;21.30;75.60;;;;;;5054914;28;20748;-86
2022/05/23 17:18:02;;;;;;;12.40;4.32;;;21.20;76.60;;;;;;5059219;28;20272;-86
2022/05/23 17:20:29;;;;;;;5.68;4.10;;;21.10;78.60;;;;;;5045517;28;20297;-86
2022/05/23 17:23:02;;;;;;;9.90;4.45;;;21.00;79.90;;;;;;5051350;28;20198;-86
2022/05/23 17:25:44;;;;;;;8.27;4.65;;;21.00;80.90;;;;;;5059650;28;20205;-86
2022/05/23 17:28:12;;;;;;;9.55;5.22;;;20.90;81.40;;;;;;5052018;28;20213;-86
2022/05/23 17:31:20;;;;;;;8.00;4.95;;;20.90;80.50;;;;;;5058583;28;20202;-86
2022/05/23 17:33:53;;;;;;;9.73;4.90;;;21.00;80.00;;;;;;5059561;28;20205;-89
2022/05/23 17:36:49;;;;;;;9.18;4.82;;;20.90;80.90;;;;;;5058413;28;20283;-89
2022/05/23 17:39:20;;;;;;;9.73;4.53;;;20.90;81.40;;;;;;5058520;28;20229;-89
2022/05/23 17:41:47;;;;;;;9.07;4.20;;;20.80;81.40;;;;;;5052330;28;20229;-88
2022/05/23 17:47:44;;;;;;;7.18;4.60;;;20.70;81.90;;;;;;5051785;28;20200;-93
2022/05/23 17:53:20;;;;;;;13.50;4.75;;;20.60;82.00;;;;;;5020624;28;20195;-90
2022/05/23 17:55:51;;;;;;;10.88;5.00;;;20.60;82.40;;;;;;4993752;28;20220;-87
2022/05/23 17:58:18;;;;;;;10.18;5.15;;;20.50;84.80;;;;;;5014541;28;20290;-86
2022/05/23 18:01:08;;;;;;;9.75;5.05;;;20.50;85.70;;;;;;5016669;28;20200;-90
2022/05/23 18:06:59;;;;;;;10.52;5.35;;;20.40;89.50;;;;;;4969220;28;20195;-87
2022/05/23 18:10:17;;;;;;;;;;;;;;;;;;;;;
2022/05/23 18:20:09;;;;;;;7.07;2.10;;;16.50;93.20;;;;;;4945864;29;20208;-85
2022/05/23 18:22:53;;;;;;;4.28;1.70;;;16.20;93.90;;;;;;4927973;29;20194;-86
2022/05/23 18:25:37;;;;;;;4.30;1.52;;;15.90;94.40;;;;;;4968480;28;20259;-87
2022/05/23 18:28:55;;;;;;;;;;;;;;;;;;;;;
2022/05/23 18:38:14;;;;;;;5.20;1.50;;;15.70;96.60;;;;;;4925242;28;20579;-84
2022/05/23 18:40:58;;;;;;;4.47;1.77;;;15.80;97.10;;;;;;4973114;28;20229;-85
2022/05/23 18:53:19;;;;;;;2.50;1.40;;;15.80;97.90;;;;;;5059731;28;20245;-86
2022/05/23 18:55:51;;;;;;;4.35;1.60;;;15.70;98.60;;;;;;5058097;28;20222;-86
2022/05/23 18:58:47;;;;;;;;;;;;;;;;;;;;;
2022/05/23 19:04:45;;;;;;;4.28;1.67;;;16.00;99.90;;;;;;5053744;28;20671;-85
2022/05/23 19:38:09;;;;;;;5.53;1.90;;;15.50;99.90;;;;;;5001863;28;20471;-85
2022/05/23 19:41:40;;;;;;;3.63;1.60;;;15.50;99.90;;;;;;4995829;28;20232;-86
2022/05/23 19:51:37;;;;;;;6.18;1.60;;;15.20;99.90;;;;;;4999317;28;20187;-85
2022/05/23 20:01:28;;;;;;;2.95;1.40;;;15.20;99.90;;;;;;4946454;29;20226;-85
2022/05/23 20:17:15;;;;;;;2.55;1.40;;;15.00;99.90;;;;;;4967989;28;20271;-85
2022/05/23 20:26:48;;;;;;;5.30;1.38;;;14.90;99.90;;;;;;4985506;28;20223;-86
2022/05/23 20:53:23;;;;;;;5.43;1.27;;;15.20;99.90;;;;;;5058336;28;20221;-86
2022/05/23 20:59:25;;;;;;;4.30;1.30;;;15.20;99.90;;;;;;5054998;28;20220;-87
2022/05/23 21:05:18;;;;;;;6.47;1.50;;;15.20;99.90;;;;;;5062880;28;20181;-86
2022/05/23 21:12:12;;;;;;;3.17;1.50;;;15.30;99.90;;;;;;5061543;28;20210;-85
2022/05/23 21:14:56;;;;;;;3.35;1.50;;;15.30;99.90;;;;;;5028651;28;20233;-86
2022/05/23 21:24:43;;;;;;;;;;;;;;;;;;;;;
2022/05/23 21:31:20;;;;;;;3.45;1.50;;;15.30;99.90;;;;;;5037138;28;20210;-86
2022/05/23 21:50:42;;;;;;;2.25;1.00;;;15.50;99.90;;;;;;5060255;28;20196;-85
2022/05/23 21:53:54;;;;;;;2.35;1.48;;;15.50;99.90;;;;;;4977990;28;20205;-85
2022/05/23 22:03:31;;;;;;;1.83;1.45;;;15.60;99.90;;;;;;4990751;28;20217;-86
2022/05/23 22:09:52;;;;;;;6.07;1.45;;;15.70;99.90;;;;;;5051058;28;20338;-85
2022/05/23 22:19:39;;;;;;;2.72;1.50;;;15.70;99.90;;;;;;4980888;28;20208;-87
2022/05/23 22:22:44;;;;;;;4.13;1.52;;;15.70;99.90;;;;;;5066422;28;20213;-86
2022/05/23 22:28:58;;;;;;;3.97;1.52;;;15.60;99.90;;;;;;5059901;28;20212;-85
2022/05/23 22:34:54;;;;;;;8.13;1.80;;;15.50;99.90;;;;;;5063460;28;20189;-85
2022/05/23 22:37:37;;;;;;;;;;;;;;;;;;;;;
2022/05/23 22:40:39;;;;;;;5.30;1.70;;;15.50;99.90;;;;;;5048946;28;20234;-86
2022/05/23 22:46:57;;;;;;;2.45;1.50;;;15.50;99.90;;;;;;5006483;28;20206;-85
